createdAt,value
2019-02-25T00:00:12.836Z,4.48
2019-02-25T00:01:12.946Z,4.42
2019-02-25T00:02:12.819Z,4.44
2019-02-25T00:03:12.811Z,4.35
2019-02-25T00:04:12.795Z,4.38
2019-02-25T00:05:12.790Z,4.24
2019-02-25T00:06:12.777Z,4.37
2019-02-25T00:07:12.874Z,4.34
2019-02-25T00:08:12.758Z,4.38
2019-02-25T00:09:12.915Z,4.50
2019-02-25T00:10:12.741Z,4.48
2019-02-25T00:11:12.758Z,4.45
2019-02-25T00:12:12.796Z,4.40
2019-02-25T00:13:12.736Z,4.32
2019-02-25T00:14:12.694Z,4.31
2019-02-25T00:15:12.684Z,4.24
2019-02-25T00:16:12.673Z,4.17
2019-02-25T00:17:12.662Z,4.19
2019-02-25T00:18:12.782Z,4.14
2019-02-25T00:19:12.753Z,4.14
2019-02-25T00:20:12.678Z,4.12
2019-02-25T00:21:12.607Z,4.06
2019-02-25T00:22:12.598Z,4.16
2019-02-25T00:23:12.761Z,4.05
2019-02-25T00:24:12.588Z,4.17
2019-02-25T00:25:12.580Z,4.16
2019-02-25T00:26:12.686Z,4.24
2019-02-25T00:27:12.551Z,4.35
2019-02-25T00:28:12.547Z,4.44
2019-02-25T00:29:12.580Z,4.56
2019-02-25T00:30:12.516Z,4.50
2019-02-25T00:31:12.524Z,4.58
2019-02-25T00:32:12.572Z,4.62
2019-02-25T00:33:12.494Z,4.56
2019-02-25T00:34:12.470Z,4.60
2019-02-25T00:35:12.454Z,4.49
2019-02-25T00:36:12.464Z,4.48
2019-02-25T00:37:12.441Z,4.42
2019-02-25T00:38:12.525Z,4.42
2019-02-25T00:39:12.423Z,4.37
2019-02-25T00:40:12.414Z,4.35
2019-02-25T00:41:12.410Z,4.24
2019-02-25T00:42:12.398Z,4.20
2019-02-25T00:43:12.508Z,4.28
2019-02-25T00:44:12.361Z,4.13
2019-02-25T00:45:12.351Z,4.13
2019-02-25T00:46:12.446Z,4.04
2019-02-25T00:47:12.350Z,3.98
2019-02-25T00:48:12.332Z,3.91
2019-02-25T00:49:12.311Z,3.99
2019-02-25T00:50:12.300Z,3.95
2019-02-25T00:51:12.297Z,3.92
2019-02-25T00:52:12.790Z,3.94
2019-02-25T00:53:12.276Z,3.84
2019-02-25T00:54:12.303Z,3.86
2019-02-25T00:55:12.273Z,3.76
2019-02-25T00:56:12.247Z,3.83
2019-02-25T00:57:12.225Z,3.80
2019-02-25T00:58:12.355Z,3.84
2019-02-25T00:59:12.205Z,3.84
2019-02-25T01:00:12.183Z,3.78
2019-02-25T01:01:12.169Z,3.70
2019-02-25T01:02:12.181Z,3.80
2019-02-25T01:03:12.148Z,3.84
2019-02-25T01:04:12.320Z,3.74
2019-02-25T01:05:12.141Z,3.80
2019-02-25T01:06:12.135Z,3.73
2019-02-25T01:07:12.114Z,3.74
2019-02-25T01:08:12.101Z,3.74
2019-02-25T01:09:12.106Z,3.77
2019-02-25T01:10:12.165Z,3.73
2019-02-25T01:11:12.074Z,3.74
2019-02-25T01:12:12.076Z,3.73
2019-02-25T01:13:12.071Z,3.78
2019-02-25T01:14:12.141Z,3.69
2019-02-25T01:15:12.115Z,3.73
2019-02-25T01:16:12.132Z,3.73
2019-02-25T01:17:12.022Z,3.65
2019-02-25T01:18:11.988Z,3.73
2019-02-25T01:19:12.003Z,3.74
2019-02-25T01:20:11.974Z,3.65
2019-02-25T01:21:12.063Z,3.58
2019-02-25T01:22:11.947Z,3.62
2019-02-25T01:23:12.216Z,3.60
2019-02-25T01:24:11.921Z,3.59
2019-02-25T01:25:11.908Z,3.58
2019-02-25T01:26:11.912Z,3.53
2019-02-25T01:27:11.980Z,3.51
2019-02-25T01:28:11.985Z,3.58
2019-02-25T01:29:11.873Z,3.47
2019-02-25T01:30:11.888Z,3.50
2019-02-25T01:31:11.842Z,3.47
2019-02-25T01:32:11.878Z,3.41
2019-02-25T01:33:11.816Z,3.42
2019-02-25T01:34:11.991Z,3.44
2019-02-25T01:35:11.804Z,3.36
2019-02-25T01:36:11.790Z,3.40
2019-02-25T01:37:11.774Z,3.34
2019-02-25T01:38:11.769Z,3.31
2019-02-25T01:39:11.852Z,3.36
2019-02-25T01:40:11.758Z,3.36
2019-02-25T01:41:11.746Z,3.28
2019-02-25T01:42:11.720Z,3.29
2019-02-25T01:43:11.793Z,3.32
2019-02-25T01:44:11.699Z,3.34
2019-02-25T01:45:11.704Z,3.36
2019-02-25T01:46:11.849Z,3.40
2019-02-25T01:47:11.695Z,3.31
2019-02-25T01:48:11.667Z,3.29
2019-02-25T01:49:11.650Z,3.29
2019-02-25T01:50:11.643Z,3.34
2019-02-25T01:51:11.621Z,3.34
2019-02-25T01:52:11.782Z,3.31
2019-02-25T01:53:11.611Z,3.28
2019-02-25T01:54:11.600Z,3.41
2019-02-25T01:55:11.656Z,3.32
2019-02-25T01:56:11.561Z,3.31
2019-02-25T01:57:11.560Z,3.44
2019-02-25T01:58:11.667Z,3.48
2019-02-25T01:59:11.555Z,3.44
2019-02-25T02:00:11.549Z,3.42
2019-02-25T02:01:11.528Z,3.44
2019-02-25T02:02:11.500Z,3.51
2019-02-25T02:03:11.503Z,3.47
2019-02-25T02:04:11.641Z,3.53
2019-02-25T02:05:11.470Z,3.53
2019-02-25T02:06:11.457Z,3.53
2019-02-25T02:07:11.441Z,3.50
2019-02-25T02:08:11.451Z,3.50
2019-02-25T02:09:11.429Z,3.50
2019-02-25T02:10:11.531Z,3.42
2019-02-25T02:11:11.411Z,3.36
2019-02-25T02:12:11.395Z,3.34
2019-02-25T02:13:14.135Z,3.31
2019-02-25T02:14:11.375Z,3.29
2019-02-25T02:15:11.359Z,3.34
2019-02-25T02:16:11.375Z,3.25
2019-02-25T02:17:11.339Z,3.28
2019-02-25T02:18:11.327Z,3.31
2019-02-25T02:19:11.424Z,3.28
2019-02-25T02:20:11.310Z,3.32
2019-02-25T02:21:11.316Z,3.31
2019-02-25T02:22:11.280Z,3.28
2019-02-25T02:23:11.291Z,3.37
2019-02-25T02:24:11.268Z,3.29
2019-02-25T02:25:11.380Z,3.37
2019-02-25T02:26:11.238Z,3.28
2019-02-25T02:27:11.235Z,3.40
2019-02-25T02:28:11.259Z,3.42
2019-02-25T02:29:11.272Z,3.50
2019-02-25T02:30:11.421Z,3.53
2019-02-25T02:31:11.219Z,3.51
2019-02-25T02:32:11.182Z,3.51
2019-02-25T02:33:11.171Z,3.45
2019-02-25T02:34:11.144Z,3.48
2019-02-25T02:35:11.131Z,3.32
2019-02-25T02:36:11.798Z,3.36
2019-02-25T02:37:11.113Z,3.29
2019-02-25T02:38:11.123Z,3.31
2019-02-25T02:39:11.127Z,3.31
2019-02-25T02:40:11.091Z,3.25
2019-02-25T02:41:11.149Z,3.21
2019-02-25T02:42:11.063Z,3.18
2019-02-25T02:43:11.054Z,3.28
2019-02-25T02:44:11.037Z,3.22
2019-02-25T02:45:11.031Z,3.26
2019-02-25T02:46:11.030Z,3.26
2019-02-25T02:47:11.072Z,3.29
2019-02-25T02:48:11.086Z,3.28
2019-02-25T02:49:10.998Z,3.23
2019-02-25T02:50:11.110Z,3.21
2019-02-25T02:51:10.984Z,3.18
2019-02-25T02:52:10.966Z,3.19
2019-02-25T02:53:11.471Z,3.18
2019-02-25T02:54:11.031Z,3.11
2019-02-25T02:55:11.356Z,3.11
2019-02-25T02:56:10.919Z,3.05
2019-02-25T02:57:10.902Z,3.18
2019-02-25T02:58:10.965Z,3.25
2019-02-25T02:59:10.884Z,3.36
2019-02-25T03:00:10.866Z,3.32
2019-02-25T03:01:10.863Z,3.31
2019-02-25T03:02:10.836Z,3.31
2019-02-25T03:03:10.827Z,3.47
2019-02-25T03:04:10.935Z,3.31
2019-02-25T03:05:10.805Z,3.32
2019-02-25T03:06:10.791Z,3.25
2019-02-25T03:07:10.810Z,3.28
2019-02-25T03:08:10.781Z,3.31
2019-02-25T03:09:10.761Z,3.29
2019-02-25T03:10:10.918Z,3.25
2019-02-25T03:11:10.828Z,3.26
2019-02-25T03:12:10.733Z,3.21
2019-02-25T03:13:10.763Z,3.13
2019-02-25T03:14:10.705Z,3.18
2019-02-25T03:15:10.696Z,3.18
2019-02-25T03:16:10.876Z,3.00
2019-02-25T03:17:10.696Z,3.04
2019-02-25T03:18:10.673Z,3.00
2019-02-25T03:19:10.815Z,2.90
2019-02-25T03:20:10.678Z,3.03
2019-02-25T03:21:10.640Z,2.97
2019-02-25T03:22:10.619Z,2.95
2019-02-25T03:23:10.711Z,3.00
2019-02-25T03:24:10.610Z,3.00
2019-02-25T03:25:10.617Z,2.90
2019-02-25T03:26:10.593Z,2.95
2019-02-25T03:27:10.639Z,2.86
2019-02-25T03:28:10.575Z,2.93
2019-02-25T03:29:11.427Z,2.87
2019-02-25T03:30:10.622Z,2.86
2019-02-25T03:31:10.544Z,2.83
2019-02-25T03:32:10.513Z,2.90
2019-02-25T03:33:10.515Z,2.86
2019-02-25T03:34:10.489Z,2.83
2019-02-25T03:35:10.589Z,2.79
2019-02-25T03:36:10.488Z,2.72
2019-02-25T03:37:10.487Z,2.77
2019-02-25T03:38:10.462Z,2.75
2019-02-25T03:39:10.551Z,2.67
2019-02-25T03:40:10.528Z,2.74
2019-02-25T03:41:10.423Z,2.71
2019-02-25T03:42:10.429Z,2.69
2019-02-25T03:43:11.186Z,2.69
2019-02-25T03:44:10.425Z,2.77
2019-02-25T03:45:10.378Z,2.68
2019-02-25T03:46:10.501Z,2.69
2019-02-25T03:47:10.367Z,2.62
2019-02-25T03:48:10.358Z,2.65
2019-02-25T03:49:10.347Z,2.67
2019-02-25T03:50:10.328Z,2.57
2019-02-25T03:51:10.315Z,2.57
2019-02-25T03:52:10.379Z,2.61
2019-02-25T03:53:10.310Z,2.57
2019-02-25T03:54:10.296Z,2.56
2019-02-25T03:55:10.288Z,2.56
2019-02-25T03:56:10.256Z,2.62
2019-02-25T03:57:10.241Z,2.61
2019-02-25T03:58:10.349Z,2.54
2019-02-25T03:59:10.225Z,2.54
2019-02-25T04:00:10.340Z,2.54
2019-02-25T04:01:10.536Z,2.51
2019-02-25T04:02:10.265Z,2.47
2019-02-25T04:03:10.223Z,2.51
2019-02-25T04:04:10.419Z,2.49
2019-02-25T04:05:10.167Z,2.43
2019-02-25T04:06:10.157Z,2.50
2019-02-25T04:07:10.144Z,2.53
2019-02-25T04:08:10.300Z,2.36
2019-02-25T04:09:10.120Z,2.36
2019-02-25T04:10:10.110Z,2.35
2019-02-25T04:11:10.109Z,2.42
2019-02-25T04:12:10.098Z,2.31
2019-02-25T04:13:10.121Z,2.42
2019-02-25T04:14:10.166Z,2.33
2019-02-25T04:15:10.090Z,2.32
2019-02-25T04:16:10.145Z,2.32
2019-02-25T04:17:10.538Z,2.28
2019-02-25T04:18:10.109Z,2.29
2019-02-25T04:19:10.234Z,2.28
2019-02-25T04:20:10.013Z,2.28
2019-02-25T04:21:10.006Z,2.20
2019-02-25T04:22:09.993Z,2.25
2019-02-25T04:23:09.972Z,2.26
2019-02-25T04:24:09.958Z,2.20
2019-02-25T04:25:10.038Z,2.22
2019-02-25T04:26:09.932Z,2.24
2019-02-25T04:27:09.922Z,2.15
2019-02-25T04:28:09.924Z,2.20
2019-02-25T04:29:09.920Z,2.17
2019-02-25T04:30:09.909Z,2.22
2019-02-25T04:31:09.950Z,2.18
2019-02-25T04:32:09.882Z,2.11
2019-02-25T04:33:09.896Z,2.22
2019-02-25T04:34:09.854Z,2.22
2019-02-25T04:35:09.842Z,2.18
2019-02-25T04:36:09.909Z,2.22
2019-02-25T04:37:09.823Z,2.25
2019-02-25T04:38:09.810Z,2.24
2019-02-25T04:39:09.817Z,2.31
2019-02-25T04:40:09.794Z,2.13
2019-02-25T04:41:09.784Z,2.22
2019-02-25T04:42:09.844Z,2.20
2019-02-25T04:43:09.838Z,2.17
2019-02-25T04:44:09.736Z,2.15
2019-02-25T04:45:09.739Z,2.10
2019-02-25T04:46:09.736Z,2.07
2019-02-25T04:47:09.712Z,2.11
2019-02-25T04:48:09.881Z,2.04
2019-02-25T04:49:09.687Z,2.06
2019-02-25T04:50:09.732Z,2.02
2019-02-25T04:51:09.672Z,2.04
2019-02-25T04:52:09.681Z,2.00
2019-02-25T04:53:09.666Z,2.14
2019-02-25T04:54:09.952Z,2.02
2019-02-25T04:55:09.731Z,2.00
2019-02-25T04:56:09.626Z,2.17
2019-02-25T04:57:09.604Z,2.20
2019-02-25T04:58:09.593Z,2.18
2019-02-25T04:59:09.581Z,2.28
2019-02-25T05:00:09.681Z,2.26
2019-02-25T05:01:09.560Z,2.13
2019-02-25T05:02:10.559Z,2.17
2019-02-25T05:03:09.548Z,2.17
2019-02-25T05:04:09.545Z,2.13
2019-02-25T05:05:09.650Z,2.17
2019-02-25T05:06:09.605Z,2.15
2019-02-25T05:07:09.573Z,2.18
2019-02-25T05:08:09.478Z,2.04
2019-02-25T05:09:09.496Z,2.07
2019-02-25T05:10:09.467Z,2.10
2019-02-25T05:11:09.568Z,2.08
2019-02-25T05:12:09.545Z,2.00
2019-02-25T05:13:09.435Z,2.15
2019-02-25T05:14:09.457Z,2.07
2019-02-25T05:15:09.958Z,2.08
2019-02-25T05:16:09.418Z,2.07
2019-02-25T05:17:09.409Z,1.97
2019-02-25T05:18:09.379Z,2.04
2019-02-25T05:19:09.372Z,1.95
2019-02-25T05:20:09.363Z,1.95
2019-02-25T05:21:09.472Z,1.91
2019-02-25T05:22:09.462Z,1.85
2019-02-25T05:23:09.325Z,1.89
2019-02-25T05:24:09.314Z,1.84
2019-02-25T05:25:09.298Z,1.81
2019-02-25T05:26:09.314Z,1.78
2019-02-25T05:27:09.302Z,1.78
2019-02-25T05:28:09.944Z,1.85
2019-02-25T05:29:09.249Z,1.89
2019-02-25T05:30:09.242Z,1.88
2019-02-25T05:31:09.242Z,1.81
2019-02-25T05:32:09.229Z,1.81
2019-02-25T05:33:09.406Z,1.78
2019-02-25T05:34:09.250Z,1.80
2019-02-25T05:35:09.242Z,1.84
2019-02-25T05:36:09.219Z,1.88
2019-02-25T05:37:09.234Z,1.71
2019-02-25T05:38:09.204Z,1.78
2019-02-25T05:39:09.409Z,1.77
2019-02-25T05:40:09.270Z,1.85
2019-02-25T05:41:09.128Z,1.92
2019-02-25T05:42:09.115Z,1.85
2019-02-25T05:43:09.502Z,1.80
2019-02-25T05:44:10.081Z,1.78
2019-02-25T05:45:09.099Z,1.88
2019-02-25T05:46:09.104Z,1.76
2019-02-25T05:47:09.059Z,1.70
2019-02-25T05:48:09.070Z,1.76
2019-02-25T05:49:09.046Z,1.73
2019-02-25T05:50:09.139Z,1.66
2019-02-25T05:51:09.021Z,1.70
2019-02-25T05:52:09.007Z,1.80
2019-02-25T05:53:08.986Z,1.67
2019-02-25T05:54:09.025Z,1.71
2019-02-25T05:55:08.998Z,1.67
2019-02-25T05:56:09.252Z,1.68
2019-02-25T05:57:08.970Z,1.67
2019-02-25T05:58:08.942Z,1.67
2019-02-25T05:59:08.929Z,1.68
2019-02-25T06:00:08.916Z,1.70
2019-02-25T06:01:08.927Z,1.67
2019-02-25T06:02:08.989Z,1.66
2019-02-25T06:03:08.900Z,1.76
2019-02-25T06:04:08.875Z,1.71
2019-02-25T06:05:08.867Z,1.73
2019-02-25T06:06:08.936Z,1.66
2019-02-25T06:07:10.430Z,1.71
2019-02-25T06:08:08.953Z,1.70
2019-02-25T06:09:08.820Z,1.67
2019-02-25T06:10:08.814Z,1.71
2019-02-25T06:11:08.803Z,1.73
2019-02-25T06:12:08.785Z,1.71
2019-02-25T06:13:08.996Z,1.71
2019-02-25T06:14:09.044Z,1.76
2019-02-25T06:15:08.769Z,1.71
2019-02-25T06:16:08.906Z,1.84
2019-02-25T06:17:08.813Z,1.77
2019-02-25T06:18:08.792Z,1.84
2019-02-25T06:19:08.943Z,1.87
2019-02-25T06:20:08.715Z,1.89
2019-02-25T06:21:08.697Z,1.88
2019-02-25T06:22:08.682Z,1.94
2019-02-25T06:23:08.680Z,1.97
2019-02-25T06:24:08.680Z,1.97
2019-02-25T06:25:08.868Z,1.95
2019-02-25T06:26:08.719Z,2.06
2019-02-25T06:27:08.646Z,2.04
2019-02-25T06:28:08.624Z,2.10
2019-02-25T06:29:08.606Z,2.17
2019-02-25T06:30:08.626Z,2.20
2019-02-25T06:31:08.680Z,2.14
2019-02-25T06:32:08.603Z,2.24
2019-02-25T06:33:09.190Z,2.22
2019-02-25T06:34:08.566Z,2.26
2019-02-25T06:35:08.549Z,2.33
2019-02-25T06:36:08.644Z,2.29
2019-02-25T06:37:08.524Z,2.35
2019-02-25T06:38:08.519Z,2.36
2019-02-25T06:39:08.499Z,2.49
2019-02-25T06:40:08.487Z,2.47
2019-02-25T06:41:09.230Z,2.57
2019-02-25T06:42:08.565Z,2.54
2019-02-25T06:43:08.580Z,2.61
2019-02-25T06:44:08.447Z,2.60
2019-02-25T06:45:08.487Z,2.69
2019-02-25T06:46:08.456Z,2.69
2019-02-25T06:47:08.482Z,2.67
2019-02-25T06:48:08.391Z,2.85
2019-02-25T06:49:08.585Z,2.83
2019-02-25T06:50:09.253Z,2.92
2019-02-25T06:51:08.581Z,2.86
2019-02-25T06:52:08.406Z,2.92
2019-02-25T06:53:08.420Z,3.05
2019-02-25T06:54:08.486Z,3.11
2019-02-25T06:55:08.471Z,3.11
2019-02-25T06:56:08.565Z,3.19
2019-02-25T06:57:08.393Z,3.19
2019-02-25T06:58:08.537Z,3.29
2019-02-25T06:59:08.370Z,3.28
2019-02-25T07:00:08.441Z,3.31
2019-02-25T07:01:08.386Z,3.41
2019-02-25T07:02:08.680Z,3.50
2019-02-25T07:03:08.390Z,3.53
2019-02-25T07:04:08.487Z,3.51
2019-02-25T07:05:08.388Z,3.59
2019-02-25T07:06:08.457Z,3.59
2019-02-25T07:07:08.375Z,3.60
2019-02-25T07:08:08.707Z,3.69
2019-02-25T07:09:08.377Z,3.73
2019-02-25T07:10:08.395Z,3.76
2019-02-25T07:11:08.394Z,3.88
2019-02-25T07:12:08.701Z,3.91
2019-02-25T07:13:08.355Z,3.95
2019-02-25T07:14:08.600Z,4.01
2019-02-25T07:15:08.414Z,4.19
2019-02-25T07:16:08.458Z,4.31
2019-02-25T07:17:08.410Z,4.41
2019-02-25T07:18:08.415Z,4.48
2019-02-25T07:19:08.696Z,4.56
2019-02-25T07:20:08.381Z,4.55
2019-02-25T07:21:08.405Z,4.75
2019-02-25T07:22:08.405Z,4.74
2019-02-25T07:23:08.444Z,4.84
2019-02-25T07:24:08.418Z,4.87
2019-02-25T07:25:09.426Z,4.96
2019-02-25T07:26:08.314Z,5.04
2019-02-25T07:27:08.154Z,5.08
2019-02-25T07:28:07.963Z,5.14
2019-02-25T07:29:07.960Z,5.30
2019-02-25T07:30:07.956Z,5.36
2019-02-25T07:31:08.606Z,5.46
2019-02-25T07:32:07.931Z,5.53
2019-02-25T07:33:07.931Z,5.64
2019-02-25T07:34:07.901Z,5.71
2019-02-25T07:35:08.585Z,5.80
2019-02-25T07:36:07.942Z,6.05
2019-02-25T07:37:07.979Z,6.20
2019-02-25T07:38:07.865Z,6.48
2019-02-25T07:39:07.839Z,6.81
2019-02-25T07:40:07.835Z,7.42
2019-02-25T07:41:08.384Z,8.38
2019-02-25T07:42:07.821Z,9.41
2019-02-25T07:43:07.924Z,10.61
2019-02-25T07:44:07.794Z,11.69
2019-02-25T07:45:08.856Z,12.50
2019-02-25T07:46:07.784Z,13.37
2019-02-25T07:47:07.759Z,14.03
2019-02-25T07:48:07.953Z,15.03
2019-02-25T07:49:07.739Z,15.77
2019-02-25T07:50:07.735Z,16.35
2019-02-25T07:51:07.711Z,16.76
2019-02-25T07:52:07.734Z,17.15
2019-02-25T07:53:09.865Z,17.33
2019-02-25T07:54:07.707Z,17.30
2019-02-25T07:55:07.693Z,17.64
2019-02-25T07:56:07.700Z,17.95
2019-02-25T07:57:07.650Z,18.25
2019-02-25T07:58:07.740Z,18.40
2019-02-25T07:59:07.695Z,18.37
2019-02-25T08:00:28.627Z,18.78
2019-02-25T08:01:07.776Z,19.14
2019-02-25T08:02:07.753Z,19.18
2019-02-25T08:03:07.575Z,18.59
2019-02-25T08:04:07.571Z,18.43
2019-02-25T08:05:07.599Z,18.68
2019-02-25T08:06:07.748Z,18.78
2019-02-25T08:07:07.536Z,18.62
2019-02-25T08:08:07.834Z,18.53
2019-02-25T08:09:07.534Z,18.44
2019-02-25T08:10:07.506Z,18.37
2019-02-25T08:11:07.497Z,18.84
2019-02-25T08:12:07.491Z,19.22
2019-02-25T08:13:07.619Z,19.55
2019-02-25T08:14:07.458Z,19.67
2019-02-25T08:15:08.941Z,19.85
2019-02-25T08:16:07.441Z,20.22
2019-02-25T08:17:07.431Z,20.47
2019-02-25T08:18:07.545Z,20.74
2019-02-25T08:19:07.404Z,20.62
2019-02-25T08:20:07.395Z,20.32
2019-02-25T08:21:07.378Z,20.10
2019-02-25T08:22:07.375Z,20.21
2019-02-25T08:23:07.373Z,20.78
2019-02-25T08:24:07.476Z,21.32
2019-02-25T08:25:07.398Z,21.50
2019-02-25T08:26:07.324Z,21.73
2019-02-25T08:27:07.316Z,21.98
2019-02-25T08:28:07.318Z,22.23
2019-02-25T08:29:07.303Z,22.45
2019-02-25T08:30:07.418Z,22.47
2019-02-25T08:31:09.189Z,22.62
2019-02-25T08:32:07.269Z,22.60
2019-02-25T08:33:07.249Z,21.80
2019-02-25T08:34:07.241Z,21.46
2019-02-25T08:35:07.253Z,20.59
2019-02-25T08:36:07.455Z,20.32
2019-02-25T08:37:07.264Z,20.52
2019-02-25T08:38:07.331Z,21.00
2019-02-25T08:39:07.220Z,21.33
2019-02-25T08:40:07.224Z,21.77
2019-02-25T08:41:07.194Z,22.23
2019-02-25T08:42:07.636Z,22.06
2019-02-25T08:43:07.142Z,22.06
2019-02-25T08:44:07.136Z,22.13
2019-02-25T08:45:08.263Z,22.55
2019-02-25T08:46:07.111Z,22.65
2019-02-25T08:47:07.089Z,22.66
2019-02-25T08:48:07.223Z,22.90
2019-02-25T08:49:07.075Z,23.40
2019-02-25T08:50:07.065Z,23.74
2019-02-25T08:51:07.046Z,24.40
2019-02-25T08:52:07.038Z,24.88
2019-02-25T08:53:07.124Z,24.60
2019-02-25T08:54:07.066Z,24.21
2019-02-25T08:55:07.019Z,24.24
2019-02-25T08:56:06.997Z,24.38
2019-02-25T08:57:06.984Z,24.38
2019-02-25T08:58:06.965Z,24.35
2019-02-25T08:59:07.135Z,24.21
2019-02-25T09:00:06.952Z,24.26
2019-02-25T09:01:06.952Z,24.20
2019-02-25T09:02:06.930Z,24.36
2019-02-25T09:03:06.940Z,25.18
2019-02-25T09:04:07.008Z,25.31
2019-02-25T09:05:06.926Z,25.32
2019-02-25T09:06:06.887Z,24.85
2019-02-25T09:07:06.882Z,23.96
2019-02-25T09:08:06.867Z,24.39
2019-02-25T09:09:06.968Z,24.88
2019-02-25T09:10:06.938Z,25.41
2019-02-25T09:11:13.911Z,25.60
2019-02-25T09:12:07.807Z,25.80
2019-02-25T09:13:06.795Z,25.80
2019-02-25T09:14:06.869Z,26.16
2019-02-25T09:15:06.794Z,26.38
2019-02-25T09:16:07.096Z,26.65
2019-02-25T09:17:06.783Z,26.62
2019-02-25T09:18:06.772Z,26.84
2019-02-25T09:19:06.744Z,26.88
2019-02-25T09:20:06.732Z,26.78
2019-02-25T09:21:08.183Z,26.63
2019-02-25T09:22:06.880Z,26.58
2019-02-25T09:23:06.693Z,26.48
2019-02-25T09:24:06.679Z,26.47
2019-02-25T09:25:06.663Z,26.53
2019-02-25T09:26:06.661Z,26.66
2019-02-25T09:27:06.767Z,26.85
2019-02-25T09:28:06.636Z,26.95
2019-02-25T09:29:06.636Z,26.96
2019-02-25T09:30:06.638Z,26.88
2019-02-25T09:31:06.891Z,26.85
2019-02-25T09:32:06.601Z,27.37
2019-02-25T09:33:06.576Z,27.64
2019-02-25T09:34:06.579Z,27.83
2019-02-25T09:35:06.587Z,27.70
2019-02-25T09:36:06.547Z,27.64
2019-02-25T09:37:06.730Z,27.67
2019-02-25T09:38:06.652Z,27.40
2019-02-25T09:39:06.509Z,27.36
2019-02-25T09:40:06.497Z,27.22
2019-02-25T09:41:06.495Z,27.14
2019-02-25T09:42:06.496Z,27.27
2019-02-25T09:43:06.481Z,27.26
2019-02-25T09:44:06.591Z,27.30
2019-02-25T09:45:06.454Z,27.42
2019-02-25T09:46:06.820Z,27.37
2019-02-25T09:47:06.434Z,27.42
2019-02-25T09:48:06.558Z,27.39
2019-02-25T09:49:06.419Z,27.42
2019-02-25T09:50:06.544Z,27.55
2019-02-25T09:51:06.447Z,27.68
2019-02-25T09:52:06.373Z,27.98
2019-02-25T09:53:07.347Z,27.95
2019-02-25T09:54:06.352Z,27.78
2019-02-25T09:55:06.446Z,28.14
2019-02-25T09:56:06.373Z,28.08
2019-02-25T09:57:06.319Z,28.19
2019-02-25T09:58:06.530Z,28.32
2019-02-25T09:59:06.315Z,28.22
2019-02-25T10:00:06.297Z,28.59
2019-02-25T10:01:06.439Z,28.94
2019-02-25T10:02:06.268Z,29.20
2019-02-25T10:03:06.279Z,29.32
2019-02-25T10:04:06.247Z,28.93
2019-02-25T10:05:06.285Z,28.66
2019-02-25T10:06:06.221Z,28.72
2019-02-25T10:07:06.459Z,28.64
2019-02-25T10:08:06.206Z,28.49
2019-02-25T10:09:06.187Z,28.54
2019-02-25T10:10:06.183Z,28.48
2019-02-25T10:11:06.171Z,28.14
2019-02-25T10:12:06.158Z,27.51
2019-02-25T10:13:11.536Z,26.80
2019-02-25T10:14:06.166Z,26.33
2019-02-25T10:15:06.115Z,25.95
2019-02-25T10:16:06.130Z,26.25
2019-02-25T10:17:06.105Z,26.21
2019-02-25T10:18:06.095Z,26.07
2019-02-25T10:19:06.201Z,26.28
2019-02-25T10:20:06.064Z,26.89
2019-02-25T10:21:06.064Z,27.45
2019-02-25T10:22:06.047Z,27.75
2019-02-25T10:23:06.040Z,27.90
2019-02-25T10:24:06.028Z,27.83
2019-02-25T10:25:06.104Z,27.78
2019-02-25T10:26:06.002Z,27.87
2019-02-25T10:27:06.434Z,27.95
2019-02-25T10:28:05.997Z,27.51
2019-02-25T10:29:05.993Z,27.74
2019-02-25T10:30:05.978Z,28.04
2019-02-25T10:31:05.947Z,28.37
2019-02-25T10:32:06.547Z,28.17
2019-02-25T10:33:06.190Z,28.67
2019-02-25T10:34:07.586Z,28.82
2019-02-25T10:35:06.026Z,28.64
2019-02-25T10:36:06.871Z,28.60
2019-02-25T10:37:06.100Z,28.94
2019-02-25T10:38:05.874Z,29.31
2019-02-25T10:39:05.914Z,29.50
2019-02-25T10:40:05.987Z,29.88
2019-02-25T10:41:05.869Z,29.94
2019-02-25T10:42:05.818Z,30.23
2019-02-25T10:43:05.852Z,30.65
2019-02-25T10:44:06.544Z,30.50
2019-02-25T10:45:07.239Z,30.24
2019-02-25T10:46:06.959Z,30.19
2019-02-25T10:47:05.785Z,30.47
2019-02-25T10:48:05.786Z,30.57
2019-02-25T10:49:11.612Z,30.65
2019-02-25T10:50:07.446Z,30.99
2019-02-25T10:51:07.045Z,30.88
2019-02-25T10:52:07.067Z,30.47
2019-02-25T10:53:05.714Z,29.93
2019-02-25T10:54:05.739Z,29.24
2019-02-25T10:55:05.678Z,29.39
2019-02-25T10:56:05.674Z,29.69
2019-02-25T10:57:05.693Z,29.59
2019-02-25T10:58:05.812Z,28.74
2019-02-25T10:59:06.245Z,28.64
2019-02-25T11:00:07.380Z,28.86
2019-02-25T11:01:07.224Z,28.82
2019-02-25T11:02:05.606Z,29.26
2019-02-25T11:03:05.597Z,29.59
2019-02-25T11:04:05.686Z,29.51
2019-02-25T11:05:05.680Z,29.50
2019-02-25T11:06:05.555Z,29.36
2019-02-25T11:07:07.399Z,29.27
2019-02-25T11:08:07.365Z,28.79
2019-02-25T11:09:07.011Z,28.30
2019-02-25T11:10:05.515Z,28.52
2019-02-25T11:11:05.677Z,28.86
2019-02-25T11:12:05.603Z,29.05
2019-02-25T11:13:05.492Z,29.12
2019-02-25T11:14:07.081Z,28.81
2019-02-25T11:15:07.395Z,28.69
2019-02-25T11:16:05.452Z,28.70
2019-02-25T11:17:05.575Z,28.45
2019-02-25T11:18:05.427Z,28.12
2019-02-25T11:19:05.428Z,28.08
2019-02-25T11:20:05.732Z,28.32
2019-02-25T11:21:06.144Z,28.39
2019-02-25T11:22:07.333Z,28.47
2019-02-25T11:23:05.462Z,28.47
2019-02-25T11:24:05.379Z,28.11
2019-02-25T11:25:05.360Z,28.05
2019-02-25T11:26:05.423Z,28.20
2019-02-25T11:27:07.203Z,28.25
2019-02-25T11:28:07.633Z,28.02
2019-02-25T11:29:06.068Z,28.11
2019-02-25T11:30:05.374Z,28.33
2019-02-25T11:31:05.336Z,28.07
2019-02-25T11:32:05.358Z,27.89
2019-02-25T11:33:05.317Z,27.77
2019-02-25T11:34:06.432Z,27.80
2019-02-25T11:35:06.305Z,27.93
2019-02-25T11:36:05.292Z,28.10
2019-02-25T11:37:05.227Z,28.23
2019-02-25T11:38:05.258Z,28.32
2019-02-25T11:39:07.012Z,28.54
2019-02-25T11:40:05.410Z,28.12
2019-02-25T11:41:07.140Z,27.87
2019-02-25T11:42:06.154Z,28.19
2019-02-25T11:43:05.823Z,28.20
2019-02-25T11:44:05.158Z,28.33
2019-02-25T11:45:05.139Z,28.49
2019-02-25T11:46:05.249Z,28.75
2019-02-25T11:47:05.271Z,28.70
2019-02-25T11:48:05.131Z,28.64
2019-02-25T11:49:05.200Z,28.42
2019-02-25T11:50:05.085Z,28.02
2019-02-25T11:51:05.082Z,28.29
2019-02-25T11:52:05.074Z,28.60
2019-02-25T11:53:05.045Z,28.42
2019-02-25T11:54:05.145Z,28.05
2019-02-25T11:55:05.050Z,27.96
2019-02-25T11:56:05.025Z,28.02
2019-02-25T11:57:05.011Z,28.45
2019-02-25T11:58:05.004Z,28.62
2019-02-25T11:59:04.983Z,28.64
2019-02-25T12:00:05.135Z,28.78
2019-02-25T12:01:05.049Z,28.79
2019-02-25T12:02:04.956Z,28.82
2019-02-25T12:03:04.935Z,28.89
2019-02-25T12:04:04.963Z,29.01
2019-02-25T12:05:05.041Z,28.78
2019-02-25T12:06:04.932Z,28.78
2019-02-25T12:07:04.898Z,28.72
2019-02-25T12:08:04.910Z,28.47
2019-02-25T12:09:04.902Z,28.02
2019-02-25T12:10:04.891Z,27.95
2019-02-25T12:11:04.982Z,27.80
2019-02-25T12:12:04.839Z,27.60
2019-02-25T12:13:04.827Z,27.70
2019-02-25T12:14:04.845Z,27.64
2019-02-25T12:15:04.987Z,27.64
2019-02-25T12:16:04.825Z,27.64
2019-02-25T12:17:04.834Z,27.49
2019-02-25T12:18:04.777Z,27.58
2019-02-25T12:19:04.776Z,27.82
2019-02-25T12:20:04.764Z,27.59
2019-02-25T12:21:05.029Z,27.49
2019-02-25T12:22:04.734Z,27.44
2019-02-25T12:23:04.718Z,27.22
2019-02-25T12:24:04.739Z,27.03
2019-02-25T12:25:05.618Z,27.15
2019-02-25T12:26:04.693Z,27.14
2019-02-25T12:27:04.805Z,27.18
2019-02-25T12:28:04.662Z,26.92
2019-02-25T12:29:10.885Z,26.80
2019-02-25T12:30:05.644Z,26.93
2019-02-25T12:31:04.769Z,26.89
2019-02-25T12:32:04.640Z,27.14
2019-02-25T12:33:04.627Z,27.37
2019-02-25T12:34:04.622Z,27.52
2019-02-25T12:35:04.610Z,26.88
2019-02-25T12:36:04.590Z,26.83
2019-02-25T12:37:05.876Z,26.56
2019-02-25T12:38:04.581Z,26.70
2019-02-25T12:39:04.547Z,26.63
2019-02-25T12:40:04.535Z,26.58
2019-02-25T12:41:04.530Z,26.53
2019-02-25T12:42:04.630Z,26.28
2019-02-25T12:43:04.506Z,26.26
2019-02-25T12:44:04.523Z,26.15
2019-02-25T12:45:04.515Z,25.80
2019-02-25T12:46:04.482Z,26.10
2019-02-25T12:47:04.469Z,26.40
2019-02-25T12:48:04.580Z,26.41
2019-02-25T12:49:04.466Z,26.34
2019-02-25T12:50:04.463Z,26.16
2019-02-25T12:51:04.422Z,25.75
2019-02-25T12:52:04.402Z,25.70
2019-02-25T12:53:04.403Z,25.90
2019-02-25T12:54:04.520Z,26.00
2019-02-25T12:55:04.686Z,26.15
2019-02-25T12:56:04.365Z,25.85
2019-02-25T12:57:04.346Z,25.51
2019-02-25T12:58:04.338Z,25.29
2019-02-25T12:59:05.224Z,24.91
2019-02-25T13:00:04.861Z,24.60
2019-02-25T13:01:18.866Z,24.55
2019-02-25T13:02:04.472Z,24.80
2019-02-25T13:03:04.284Z,25.21
2019-02-25T13:04:04.272Z,25.58
2019-02-25T13:05:04.266Z,25.70
2019-02-25T13:06:04.255Z,25.47
2019-02-25T13:07:04.249Z,25.46